createdAt,value
2018-08-10T00:00:49.709Z,76.11
2018-08-10T00:03:18.568Z,75.05
2018-08-10T00:05:47.443Z,74.22
2018-08-10T00:08:16.539Z,73.65
2018-08-10T00:10:45.394Z,74.96
2018-08-10T00:13:14.345Z,74.59
2018-08-10T00:15:43.257Z,74.12
2018-08-10T00:18:12.323Z,74.57
2018-08-10T00:20:41.198Z,73.77
2018-08-10T00:23:10.080Z,73.16
2018-08-10T00:25:39.071Z,75.01
2018-08-10T00:28:09.025Z,75.33
2018-08-10T00:30:37.917Z,75.22
2018-08-10T00:33:06.829Z,75.64
2018-08-10T00:35:35.730Z,73.99
2018-08-10T00:38:04.652Z,75.37
2018-08-10T00:40:33.525Z,75.43
2018-08-10T00:43:02.434Z,75.29
2018-08-10T00:45:31.358Z,74.49
2018-08-10T00:48:00.236Z,73.76
2018-08-10T00:50:29.106Z,74.72
2018-08-10T00:52:58.025Z,75.75
2018-08-10T00:55:26.943Z,74.77
2018-08-10T00:57:55.803Z,75.44
2018-08-10T01:00:24.965Z,74.82
2018-08-10T01:02:54.211Z,74.84
2018-08-10T01:05:23.097Z,74.65
2018-08-10T01:07:52.080Z,74.71
2018-08-10T01:10:21.359Z,75.00
2018-08-10T01:12:50.294Z,74.43
2018-08-10T01:15:19.215Z,73.91
2018-08-10T01:17:48.145Z,73.53
2018-08-10T01:20:20.969Z,74.25
2018-08-10T01:22:55.093Z,74.90
2018-08-10T01:25:25.048Z,74.65
2018-08-10T01:27:59.235Z,74.73
2018-08-10T01:30:29.389Z,74.58
2018-08-10T01:32:58.512Z,74.61
2018-08-10T01:35:27.944Z,75.32
2018-08-10T01:37:57.934Z,74.23
2018-08-10T01:40:26.814Z,75.13
2018-08-10T01:42:55.757Z,74.68
2018-08-10T01:45:24.692Z,75.00
2018-08-10T01:47:53.876Z,73.90
2018-08-10T01:50:22.902Z,73.89
2018-08-10T01:52:51.804Z,74.61
2018-08-10T01:55:20.716Z,74.50
2018-08-10T01:57:49.659Z,74.65
2018-08-10T02:00:18.587Z,74.74
2018-08-10T02:02:47.470Z,75.39
2018-08-10T02:05:16.658Z,73.74
2018-08-10T02:07:45.595Z,74.26
2018-08-10T02:10:16.673Z,74.51
2018-08-10T02:12:50.104Z,74.40
2018-08-10T02:15:19.557Z,74.97
2018-08-10T02:17:48.962Z,75.19
2018-08-10T02:20:19.914Z,75.21
2018-08-10T02:22:49.407Z,75.90
2018-08-10T02:25:20.125Z,75.35
2018-08-10T02:27:49.671Z,77.47
2018-08-10T02:30:19.710Z,76.37
2018-08-10T02:32:50.406Z,76.09
2018-08-10T02:35:19.373Z,76.48
2018-08-10T02:37:48.334Z,75.34
2018-08-10T02:40:19.892Z,75.93
2018-08-10T02:42:49.526Z,76.32
2018-08-10T02:45:18.731Z,77.14
2018-08-10T02:47:48.180Z,78.23
2018-08-10T02:50:17.071Z,76.69
2018-08-10T02:52:46.266Z,76.95
2018-08-10T02:55:15.285Z,76.89
2018-08-10T02:57:44.352Z,78.04
2018-08-10T03:00:14.675Z,77.12
2018-08-10T03:02:44.222Z,76.88
2018-08-10T03:05:13.132Z,76.38
2018-08-10T03:07:42.352Z,77.06
2018-08-10T03:10:12.264Z,77.67
2018-08-10T03:12:41.181Z,77.84
2018-08-10T03:15:12.467Z,78.23
2018-08-10T03:17:41.418Z,79.96
2018-08-10T03:20:10.639Z,78.65
2018-08-10T03:22:39.830Z,78.28
2018-08-10T03:25:09.721Z,77.84
2018-08-10T03:27:38.825Z,77.49
2018-08-10T03:30:09.301Z,78.20
2018-08-10T03:32:38.563Z,78.11
2018-08-10T03:35:07.465Z,78.54
2018-08-10T03:37:36.802Z,79.52
2018-08-10T03:40:07.667Z,79.65
2018-08-10T03:42:36.560Z,79.97
2018-08-10T03:45:05.890Z,79.45
2018-08-10T03:47:34.785Z,79.42
2018-08-10T03:50:04.083Z,78.94
2018-08-10T03:52:33.034Z,79.09
2018-08-10T03:55:01.962Z,78.71
2018-08-10T03:57:30.891Z,79.67
2018-08-10T03:59:59.807Z,80.71
2018-08-10T04:02:28.710Z,80.24
2018-08-10T04:04:57.623Z,81.35
2018-08-10T04:07:26.564Z,78.47
2018-08-10T04:09:55.446Z,78.19
2018-08-10T04:12:24.356Z,78.39
2018-08-10T04:14:53.240Z,78.71
2018-08-10T04:17:24.613Z,78.81
2018-08-10T04:19:54.623Z,79.31
2018-08-10T04:22:25.523Z,78.83
2018-08-10T04:24:54.470Z,78.62
2018-08-10T04:27:23.448Z,78.27
2018-08-10T04:29:52.387Z,78.93
2018-08-10T04:32:21.279Z,79.21
2018-08-10T04:34:50.229Z,79.21
2018-08-10T04:37:20.190Z,79.21
2018-08-10T04:39:49.126Z,78.31
2018-08-10T04:42:18.032Z,79.07
2018-08-10T04:44:46.928Z,78.98
2018-08-10T04:47:15.844Z,80.08
2018-08-10T04:49:44.792Z,79.29
2018-08-10T04:52:13.722Z,79.46
2018-08-10T04:54:42.638Z,80.34
2018-08-10T04:57:11.654Z,80.26
2018-08-10T04:59:40.658Z,80.44
2018-08-10T05:02:09.665Z,79.04
2018-08-10T05:04:38.583Z,78.90
2018-08-10T05:07:07.448Z,79.49
2018-08-10T05:09:36.369Z,79.46
2018-08-10T05:12:05.319Z,79.44
2018-08-10T05:14:34.166Z,80.28
2018-08-10T05:17:03.102Z,79.95
2018-08-10T05:19:31.950Z,79.92
2018-08-10T05:22:00.874Z,79.47
2018-08-10T05:24:29.775Z,78.47
2018-08-10T05:26:58.709Z,77.84
2018-08-10T05:29:27.639Z,78.38
2018-08-10T05:31:56.534Z,78.15
2018-08-10T05:34:25.490Z,77.55
2018-08-10T05:36:54.501Z,78.04
2018-08-10T05:39:23.360Z,78.10
2018-08-10T05:41:52.255Z,78.56
2018-08-10T05:44:21.145Z,78.02
2018-08-10T05:46:50.074Z,78.20
2018-08-10T05:49:47.582Z,77.64
2018-08-10T05:52:16.584Z,77.93
2018-08-10T05:54:45.523Z,77.22
2018-08-10T05:57:14.952Z,76.61
2018-08-10T05:59:43.847Z,76.16
2018-08-10T06:02:12.752Z,76.55
2018-08-10T06:04:42.695Z,76.76
2018-08-10T06:07:12.093Z,75.20
2018-08-10T06:09:40.991Z,74.70
2018-08-10T06:12:09.918Z,75.18
2018-08-10T06:14:38.873Z,75.64
2018-08-10T06:17:07.796Z,74.35
2018-08-10T06:19:36.769Z,74.96
2018-08-10T06:22:05.668Z,74.87
2018-08-10T06:24:34.660Z,74.28
2018-08-10T06:27:03.564Z,74.02
2018-08-10T06:29:32.440Z,74.03
2018-08-10T06:32:01.326Z,74.27
2018-08-10T06:34:30.209Z,73.58
2018-08-10T06:36:59.142Z,73.17
2018-08-10T06:39:27.993Z,74.06
2018-08-10T06:41:57.017Z,73.73
2018-08-10T06:44:25.939Z,74.45
2018-08-10T06:46:54.822Z,74.50
2018-08-10T06:49:23.746Z,75.25
2018-08-10T06:51:52.625Z,74.87
2018-08-10T06:54:22.561Z,74.68
2018-08-10T06:56:51.434Z,73.46
2018-08-10T06:59:20.352Z,74.30
2018-08-10T07:01:49.225Z,74.16
2018-08-10T07:04:18.299Z,73.26
2018-08-10T07:06:47.283Z,73.17
2018-08-10T07:09:16.274Z,73.07
2018-08-10T07:11:45.235Z,73.59
2018-08-10T07:14:14.172Z,72.96
2018-08-10T07:16:43.244Z,73.39
2018-08-10T07:19:12.149Z,73.29
2018-08-10T07:21:41.032Z,72.29
2018-08-10T07:24:09.934Z,72.07
2018-08-10T07:26:38.802Z,71.42
2018-08-10T07:29:07.744Z,71.02
2018-08-10T07:31:36.609Z,71.10
2018-08-10T07:34:05.628Z,71.08
2018-08-10T07:36:34.613Z,71.04
2018-08-10T07:39:03.670Z,70.54
2018-08-10T07:41:32.559Z,71.05
2018-08-10T07:44:01.417Z,71.68
2018-08-10T07:46:30.336Z,70.41
2018-08-10T07:48:59.254Z,69.55
2018-08-10T07:51:28.195Z,70.27
2018-08-10T07:53:57.080Z,69.33
2018-08-10T07:56:26.003Z,68.30
2018-08-10T07:58:54.966Z,68.55
2018-08-10T08:01:23.863Z,67.36
2018-08-10T08:03:52.673Z,67.06
2018-08-10T08:06:21.593Z,66.02
2018-08-10T08:08:51.482Z,66.18
2018-08-10T08:11:20.455Z,67.11
2018-08-10T08:13:49.426Z,65.94
2018-08-10T08:16:18.339Z,66.16
2018-08-10T08:18:47.206Z,65.25
2018-08-10T08:21:16.109Z,64.75
2018-08-10T08:23:45.007Z,63.72
2018-08-10T08:26:13.873Z,63.84
2018-08-10T08:28:42.838Z,63.35
2018-08-10T08:31:11.682Z,63.17
2018-08-10T08:33:51.752Z,63.44
2018-08-10T08:36:20.634Z,63.52
2018-08-10T08:41:03.843Z,61.28
2018-08-10T08:46:08.267Z,60.93
2018-08-10T08:48:41.595Z,61.04
2018-08-10T08:51:12.775Z,61.06
2018-08-10T08:53:41.719Z,60.75
2018-08-10T08:56:14.984Z,61.28
2018-08-10T08:58:44.921Z,60.27
2018-08-10T09:01:14.176Z,58.65
2018-08-10T09:05:06.330Z,59.07
2018-08-10T09:07:36.392Z,58.60
2018-08-10T09:10:11.929Z,57.82
2018-08-10T09:12:40.823Z,57.90
2018-08-10T09:15:11.868Z,57.45
2018-08-10T09:17:40.903Z,56.84
2018-08-10T09:20:10.328Z,56.11
2018-08-10T09:22:39.296Z,55.59
2018-08-10T09:25:10.513Z,54.21
2018-08-10T09:27:39.483Z,55.00
2018-08-10T09:30:09.801Z,55.27
2018-08-10T09:32:38.883Z,55.85
2018-08-10T09:35:08.795Z,53.81
2018-08-10T09:37:37.743Z,54.35
2018-08-10T09:40:09.704Z,53.65
2018-08-10T09:42:38.630Z,54.12
2018-08-10T09:45:08.378Z,54.40
2018-08-10T09:47:37.391Z,53.37
2018-08-10T09:50:07.624Z,53.38
2018-08-10T09:52:36.533Z,52.90
2018-08-10T09:55:20.921Z,51.22
2018-08-10T09:57:51.261Z,51.59
2018-08-10T10:00:25.356Z,50.85
2018-08-10T10:02:59.291Z,50.39
2018-08-10T10:05:28.263Z,51.37
2018-08-10T10:07:57.783Z,51.78
2018-08-10T10:10:26.985Z,52.55
2018-08-10T10:12:56.583Z,52.31
2018-08-10T10:15:25.579Z,51.23
2018-08-10T10:17:55.294Z,49.57
2018-08-10T10:20:24.559Z,47.38
2018-08-10T10:22:53.898Z,46.66
2018-08-10T10:25:23.075Z,44.38
2018-08-10T10:27:53.117Z,43.97
2018-08-10T10:30:22.709Z,44.01
2018-08-10T10:32:51.972Z,44.55
2018-08-10T10:35:21.135Z,43.50
2018-08-10T10:37:50.356Z,44.52
2018-08-10T10:40:19.380Z,44.83
2018-08-10T10:42:48.294Z,45.78
2018-08-10T10:45:17.182Z,45.29
2018-08-10T10:47:47.251Z,44.20
2018-08-10T10:50:16.702Z,43.85
2018-08-10T10:52:45.731Z,43.02
2018-08-10T10:55:14.654Z,41.97
2018-08-10T10:57:44.091Z,41.59
2018-08-10T11:00:16.707Z,42.34
2018-08-10T11:02:46.739Z,42.25
2018-08-10T11:05:15.755Z,42.51
2018-08-10T11:07:44.850Z,42.38
2018-08-10T11:10:15.168Z,41.59
2018-08-10T11:12:44.161Z,41.25
2018-08-10T11:15:13.569Z,41.33
2018-08-10T11:17:43.679Z,42.18
2018-08-10T11:20:13.302Z,43.04
2018-08-10T11:22:42.771Z,43.11
2018-08-10T11:25:12.959Z,42.66
2018-08-10T11:27:42.854Z,42.79
2018-08-10T11:30:13.905Z,42.93
2018-08-10T11:32:42.780Z,42.75
2018-08-10T11:35:11.756Z,42.02
2018-08-10T11:37:40.733Z,40.77
2018-08-10T11:40:12.385Z,40.67
2018-08-10T11:42:41.721Z,40.59
2018-08-10T11:45:13.161Z,39.46
2018-08-10T11:47:42.299Z,38.35
2018-08-10T11:50:11.461Z,39.95
2018-08-10T11:52:40.314Z,40.79
2018-08-10T11:55:11.256Z,40.84
2018-08-10T11:57:40.245Z,41.15
2018-08-10T12:00:10.562Z,41.45
2018-08-10T12:02:39.522Z,41.25
2018-08-10T12:05:09.679Z,41.22
2018-08-10T12:07:38.582Z,40.00
2018-08-10T12:10:07.905Z,40.35
2018-08-10T12:12:36.869Z,39.95
2018-08-10T12:15:07.936Z,39.70
2018-08-10T12:17:37.182Z,38.79
2018-08-10T12:20:06.233Z,39.04
2018-08-10T12:22:35.282Z,39.48
2018-08-10T12:25:04.718Z,40.40
2018-08-10T12:27:33.656Z,40.24
2018-08-10T12:30:02.619Z,39.58
2018-08-10T12:32:31.537Z,38.31
2018-08-10T12:35:00.406Z,38.39
2018-08-10T12:37:29.349Z,37.11
2018-08-10T12:39:58.402Z,38.38
2018-08-10T12:42:27.301Z,38.70
2018-08-10T12:44:56.213Z,38.84
2018-08-10T12:47:25.122Z,37.40
2018-08-10T12:49:54.065Z,36.64
2018-08-10T12:52:23.998Z,37.24
2018-08-10T12:54:53.011Z,38.16
2018-08-10T12:57:21.916Z,38.75
2018-08-10T12:59:50.996Z,39.15
2018-08-10T13:02:19.918Z,38.41
2018-08-10T13:04:48.909Z,37.65
2018-08-10T13:07:17.880Z,37.56
2018-08-10T13:09:46.839Z,36.93
2018-08-10T13:12:15.781Z,37.46
2018-08-10T13:14:44.686Z,38.44
2018-08-10T13:17:13.822Z,38.45
2018-08-10T13:19:42.812Z,37.36
2018-08-10T13:22:11.829Z,37.03
2018-08-10T13:24:40.856Z,37.12
2018-08-10T13:27:09.818Z,36.80
2018-08-10T13:29:38.808Z,37.50
2018-08-10T13:32:07.788Z,38.35
2018-08-10T13:34:36.820Z,38.48
2018-08-10T13:37:05.866Z,37.52
2018-08-10T13:39:34.837Z,36.76
2018-08-10T13:42:03.820Z,35.95
2018-08-10T13:44:32.761Z,34.67
2018-08-10T13:47:01.705Z,33.57
2018-08-10T13:49:30.715Z,33.71
2018-08-10T13:51:59.604Z,34.28
2018-08-10T13:54:28.526Z,34.52
2018-08-10T13:56:57.416Z,34.78
2018-08-10T13:59:26.266Z,34.82
2018-08-10T14:01:55.332Z,35.14
2018-08-10T14:04:24.574Z,35.51
2018-08-10T14:06:53.762Z,35.37
2018-08-10T14:09:22.684Z,35.45
2018-08-10T14:11:51.764Z,36.01
2018-08-10T14:14:20.715Z,36.05
2018-08-10T14:16:49.731Z,36.51
2018-08-10T14:19:18.625Z,37.85
2018-08-10T14:21:47.539Z,36.14
2018-08-10T14:24:16.436Z,36.32
2018-08-10T14:26:45.325Z,36.06
2018-08-10T14:29:14.242Z,36.21
2018-08-10T14:31:43.108Z,37.11
2018-08-10T14:34:11.996Z,37.62
2018-08-10T14:36:40.892Z,36.82
2018-08-10T14:39:11.138Z,36.75
2018-08-10T14:41:40.197Z,35.39
2018-08-10T14:44:09.199Z,34.93
2018-08-10T14:46:38.213Z,35.14
2018-08-10T14:49:07.831Z,35.17
2018-08-10T14:51:36.751Z,35.72
2018-08-10T14:54:06.086Z,36.18
2018-08-10T14:56:34.961Z,36.80
2018-08-10T14:59:03.810Z,36.88
2018-08-10T15:01:32.754Z,36.79
2018-08-10T15:04:01.752Z,36.04
2018-08-10T15:06:30.757Z,35.13
2018-08-10T15:08:59.684Z,35.61
2018-08-10T15:11:28.598Z,35.18
2018-08-10T15:13:57.597Z,34.45
2018-08-10T15:16:26.523Z,33.74
2018-08-10T15:18:55.508Z,34.13
2018-08-10T15:21:24.406Z,35.71
2018-08-10T15:23:54.332Z,34.66
2018-08-10T15:26:23.206Z,34.55
2018-08-10T15:28:52.107Z,34.99
2018-08-10T15:31:21.012Z,34.95
2018-08-10T15:33:50.017Z,35.51
2018-08-10T15:36:18.908Z,35.51
2018-08-10T15:38:48.055Z,35.12
2018-08-10T15:41:16.995Z,35.03
2018-08-10T15:43:45.969Z,34.13
2018-08-10T15:46:14.838Z,34.56
2018-08-10T15:48:43.755Z,34.49
2018-08-10T15:51:13.009Z,33.91
2018-08-10T15:53:42.153Z,34.22
2018-08-10T15:56:11.094Z,34.30
2018-08-10T15:58:39.958Z,34.31
2018-08-10T16:01:08.911Z,34.31
2018-08-10T16:03:37.977Z,34.75
2018-08-10T16:06:06.889Z,34.78
2018-08-10T16:08:35.810Z,34.00
2018-08-10T16:11:04.761Z,34.30
2018-08-10T16:13:33.634Z,34.24
2018-08-10T16:16:02.544Z,34.10
2018-08-10T16:18:31.418Z,33.75
2018-08-10T16:21:00.359Z,33.08
2018-08-10T16:23:29.248Z,33.15
2018-08-10T16:25:58.166Z,33.72
2018-08-10T16:28:27.164Z,33.33
2018-08-10T16:30:56.069Z,33.40
2018-08-10T16:33:24.998Z,33.59
2018-08-10T16:35:53.989Z,33.42
2018-08-10T16:38:22.904Z,33.51
2018-08-10T16:40:51.900Z,33.79
2018-08-10T16:43:20.987Z,33.46
2018-08-10T16:45:49.850Z,33.89
2018-08-10T16:48:18.878Z,34.31
2018-08-10T16:50:47.980Z,34.32
2018-08-10T16:53:17.309Z,35.25
2018-08-10T16:55:46.228Z,35.21
2018-08-10T16:58:15.125Z,36.24
2018-08-10T17:00:44.037Z,36.79
2018-08-10T17:03:12.942Z,36.00
2018-08-10T17:05:41.982Z,35.92
2018-08-10T17:08:10.923Z,35.08
2018-08-10T17:10:40.303Z,34.17
2018-08-10T17:13:09.151Z,34.58
2018-08-10T17:15:38.090Z,34.69
2018-08-10T17:18:06.975Z,35.22
2018-08-10T17:20:35.833Z,35.26
2018-08-10T17:23:04.754Z,34.50
2018-08-10T17:25:33.778Z,35.37
2018-08-10T17:28:02.700Z,35.30
2018-08-10T17:30:31.632Z,35.21
2018-08-10T17:33:00.675Z,35.44
2018-08-10T17:35:29.471Z,35.87
2018-08-10T17:37:58.380Z,36.08
2018-08-10T17:40:27.313Z,36.63
2018-08-10T17:42:56.196Z,37.11
2018-08-10T17:45:25.086Z,36.92
2018-08-10T17:47:54.244Z,36.76
2018-08-10T17:50:23.173Z,37.31
2018-08-10T17:52:53.293Z,37.56
2018-08-10T17:55:22.696Z,36.75
2018-08-10T17:57:51.595Z,36.48
2018-08-10T18:00:22.007Z,37.15
2018-08-10T18:02:51.320Z,36.73
2018-08-10T18:05:21.283Z,37.50
2018-08-10T18:07:50.172Z,37.07
2018-08-10T18:10:19.639Z,37.17
2018-08-10T18:12:48.638Z,36.85
2018-08-10T18:15:19.033Z,36.76
2018-08-10T18:17:48.388Z,37.12
2018-08-10T18:20:19.176Z,36.93
2018-08-10T18:22:49.245Z,37.58
2018-08-10T18:25:19.319Z,38.00
2018-08-10T18:27:48.242Z,38.20
2018-08-10T18:30:22.074Z,38.65
2018-08-10T18:32:50.993Z,38.65
2018-08-10T18:35:19.872Z,39.03
2018-08-10T18:37:49.491Z,39.37
2018-08-10T18:40:18.554Z,38.94
2018-08-10T18:42:48.534Z,39.65
2018-08-10T18:45:18.578Z,39.39
2018-08-10T18:47:47.521Z,39.32
2018-08-10T18:50:17.439Z,39.72
2018-08-10T18:52:46.329Z,40.25
2018-08-10T18:55:18.733Z,39.66
2018-08-10T18:57:47.616Z,39.89
2018-08-10T19:00:18.312Z,40.67
2018-08-10T19:02:47.368Z,40.88
2018-08-10T19:05:17.015Z,41.04
2018-08-10T19:07:46.425Z,40.69
2018-08-10T19:10:24.240Z,41.13
2018-08-10T19:12:53.209Z,41.38
2018-08-10T19:15:22.115Z,41.58
2018-08-10T19:17:51.043Z,41.99
2018-08-10T19:20:19.867Z,41.76
2018-08-10T19:22:48.853Z,41.29
2018-08-10T19:25:18.062Z,42.03
2018-08-10T19:27:46.987Z,42.43
2018-08-10T19:30:18.240Z,41.84
2018-08-10T19:32:47.758Z,42.31
2018-08-10T19:35:17.310Z,41.96
2018-08-10T19:37:46.215Z,42.13
2018-08-10T19:40:16.257Z,42.51
2018-08-10T19:42:45.136Z,42.19
2018-08-10T19:45:14.684Z,42.36
2018-08-10T19:47:43.895Z,42.81
2018-08-10T19:50:14.169Z,41.77
2018-08-10T19:52:43.283Z,41.86
2018-08-10T19:55:13.797Z,42.32
2018-08-10T19:57:43.732Z,42.86
2018-08-10T20:00:14.214Z,42.94
2018-08-10T20:02:43.271Z,42.70
2018-08-10T20:05:12.179Z,43.36
2018-08-10T20:07:41.069Z,42.56
2018-08-10T20:10:11.165Z,42.56
2018-08-10T20:12:40.126Z,41.87
2018-08-10T20:15:12.646Z,42.88
2018-08-10T20:17:42.101Z,42.58
2018-08-10T20:20:12.749Z,42.62
2018-08-10T20:22:41.642Z,42.17
2018-08-10T20:25:11.279Z,42.46
2018-08-10T20:27:40.172Z,42.43
2018-08-10T20:30:11.025Z,43.19
2018-08-10T20:32:40.300Z,42.39
2018-08-10T20:35:12.220Z,42.58
2018-08-10T20:37:41.809Z,42.83
2018-08-10T20:40:13.455Z,43.46
2018-08-10T20:42:42.385Z,42.54
2018-08-10T20:45:12.442Z,43.28
2018-08-10T20:47:41.339Z,43.34
2018-08-10T20:50:14.041Z,43.85
2018-08-10T20:52:43.446Z,43.50
2018-08-10T20:55:12.540Z,43.19
2018-08-10T20:57:41.481Z,43.19
2018-08-10T21:00:10.913Z,43.51
2018-08-10T21:02:40.556Z,43.80
2018-08-10T21:05:09.438Z,43.80
2018-08-10T21:07:38.374Z,44.00
2018-08-10T21:10:09.789Z,44.10
2018-08-10T21:12:39.125Z,43.79
2018-08-10T21:15:08.969Z,44.17
2018-08-10T21:17:37.995Z,43.68
2018-08-10T21:20:08.328Z,44.13
2018-08-10T21:22:37.316Z,43.88
2018-08-10T21:25:06.379Z,43.88
2018-08-10T21:27:35.273Z,43.52
2018-08-10T21:30:05.582Z,43.99
2018-08-10T21:32:34.561Z,44.00
2018-08-10T21:35:03.504Z,43.67
2018-08-10T21:37:32.601Z,43.99
2018-08-10T21:40:01.571Z,44.64
2018-08-10T21:42:30.583Z,43.87
2018-08-10T21:44:59.621Z,43.82
2018-08-10T21:47:28.591Z,44.10
2018-08-10T21:49:57.476Z,44.17
2018-08-10T21:52:26.373Z,44.42
2018-08-10T21:54:55.257Z,43.81
2018-08-10T21:57:24.168Z,43.98
2018-08-10T21:59:53.072Z,43.98
2018-08-10T22:02:22.749Z,43.78
2018-08-10T22:04:51.641Z,44.06
2018-08-10T22:07:20.772Z,44.72
2018-08-10T22:09:49.685Z,44.49
2018-08-10T22:12:18.923Z,44.62
2018-08-10T22:14:53.493Z,44.74
2018-08-10T22:17:27.861Z,45.02
2018-08-10T22:20:00.350Z,44.62
2018-08-10T22:22:30.794Z,45.17
2018-08-10T22:24:59.845Z,45.65
2018-08-10T22:27:28.787Z,45.61
2018-08-10T22:29:57.649Z,45.75
2018-08-10T22:32:26.601Z,46.00
2018-08-10T22:34:55.492Z,45.77
2018-08-10T22:37:24.480Z,46.39
2018-08-10T22:39:53.376Z,46.19
2018-08-10T22:42:22.291Z,46.27
2018-08-10T22:44:51.178Z,47.10
2018-08-10T22:47:20.177Z,47.35
2018-08-10T22:49:49.092Z,46.52
2018-08-10T22:52:17.935Z,46.56
2018-08-10T22:54:46.817Z,46.27
2018-08-10T22:57:15.733Z,46.95
2018-08-10T22:59:45.702Z,46.89
2018-08-10T23:02:14.639Z,46.86
2018-08-10T23:04:43.578Z,47.18
2018-08-10T23:07:12.509Z,47.27
2018-08-10T23:09:41.424Z,47.16
2018-08-10T23:12:10.366Z,46.96
2018-08-10T23:14:39.288Z,47.74
2018-08-10T23:17:08.197Z,47.62
2018-08-10T23:19:37.142Z,47.08
2018-08-10T23:22:06.070Z,47.81
2018-08-10T23:24:35.122Z,47.82
2018-08-10T23:27:04.075Z,47.70
2018-08-10T23:29:32.963Z,47.57
2018-08-10T23:32:02.233Z,47.78
2018-08-10T23:34:31.433Z,48.19
2018-08-10T23:37:00.341Z,47.67
2018-08-10T23:39:29.310Z,47.48
2018-08-10T23:41:58.204Z,47.49
2018-08-10T23:44:27.108Z,47.71
2018-08-10T23:46:56.034Z,47.72
2018-08-10T23:49:24.955Z,48.57
2018-08-10T23:51:53.893Z,48.42
2018-08-10T23:54:22.764Z,48.45
2018-08-10T23:56:51.676Z,48.20
2018-08-10T23:59:20.631Z,48.09
